Time;durP1;ratioP1;P1;durP2;ratioP2;P2;SDS_P1;SDS_P2;PMS_P1;PMS_P2;Temp;Humidity;BMP_temperature;BMP_pressure;BME280_temperature;BME280_humidity;BME280_pressure;Samples;Min_cycle;Max_cycle;Signal;HPM_P1;HPM_P2
2022/12/30 00:01:24;;;;;;;10.40;1.85;;;;;;;5.43;100.00;100941.66;6249236;22;20493;-77
2022/12/30 00:03:51;;;;;;;10.02;2.40;;;;;;;5.42;99.71;100948.06;6249549;22;20466;-77
2022/12/30 00:06:22;;;;;;;9.63;2.38;;;;;;;5.41;99.73;100943.19;6249489;22;20023;-77
2022/12/30 00:08:54;;;;;;;7.00;1.83;;;;;;;5.40;99.98;100946.97;6248306;22;20023;-77
2022/12/30 00:11:30;;;;;;;11.07;2.38;;;;;;;5.36;100.00;100944.38;6249380;22;20427;-78
2022/12/30 00:34:21;;;;;;;8.55;2.08;;;;;;;5.14;100.00;100985.41;6249404;22;20012;-77
2022/12/30 00:36:49;;;;;;;;;;;;;;;5.12;100.00;100979.78;6250437;22;20035;-77
2022/12/30 00:39:16;;;;;;;9.27;2.00;;;;;;;5.09;100.00;100975.28;6249493;22;19947;-77
2022/12/30 00:44:27;;;;;;;8.38;1.73;;;;;;;5.05;100.00;100979.84;6249460;22;20039;-77
2022/12/30 00:46:55;;;;;;;8.02;1.65;;;;;;;5.01;100.00;100979.91;6249017;22;20016;-77
2022/12/30 00:57:38;;;;;;;10.55;1.98;;;;;;;4.93;100.00;100987.13;6249103;22;20362;-77
2022/12/30 01:00:06;;;;;;;6.03;1.92;;;;;;;4.91;100.00;100991.31;6249198;22;20450;-77
2022/12/30 01:02:33;;;;;;;10.40;2.15;;;;;;;4.89;100.00;100990.94;6249267;22;20017;-77
2022/12/30 01:04:59;;;;;;;9.00;1.95;;;;;;;4.89;100.00;100998.88;6249709;22;20067;-77
2022/12/30 01:07:29;;;;;;;9.20;1.77;;;;;;;4.86;100.00;100997.00;6249454;22;20469;-77
2022/12/30 01:09:56;;;;;;;11.45;2.38;;;;;;;4.85;100.00;101003.44;6248757;22;20080;-77
2022/12/30 01:12:23;;;;;;;12.50;2.40;;;;;;;4.82;100.00;100997.03;6249555;22;20095;-77
2022/12/30 01:14:52;;;;;;;6.57;2.40;;;;;;;4.80;100.00;101003.88;6249387;22;20091;-77
2022/12/30 01:17:22;;;;;;;12.27;2.30;;;;;;;4.74;100.00;101011.47;6249191;22;20065;-77
2022/12/30 01:19:49;;;;;;;8.55;2.22;;;;;;;4.70;100.00;101008.13;6249023;22;20017;-77
2022/12/30 01:22:16;;;;;;;11.13;1.92;;;;;;;4.69;100.00;101010.00;6249445;22;20016;-79
2022/12/30 01:24:42;;;;;;;8.65;1.90;;;;;;;4.69;100.00;101006.63;6222447;22;20024;-77
2022/12/30 01:27:09;;;;;;;12.18;2.20;;;;;;;4.69;100.00;101011.91;6221748;22;20027;-79
2022/12/30 01:29:38;;;;;;;13.63;1.90;;;;;;;4.67;100.00;101014.91;6249531;22;20009;-79
2022/12/30 01:32:07;;;;;;;9.60;2.25;;;;;;;4.67;100.00;101007.00;6248785;22;20051;-80
2022/12/30 01:34:34;;;;;;;9.73;2.10;;;;;;;4.67;100.00;101012.28;6249320;22;20421;-77
2022/12/30 01:37:01;;;;;;;5.95;1.42;;;;;;;4.66;100.00;101023.97;6249207;22;20438;-77
2022/12/30 01:39:27;;;;;;;10.52;2.17;;;;;;;4.66;100.00;101021.34;6248853;22;20043;-78
2022/12/30 01:41:55;;;;;;;7.25;1.73;;;;;;;4.64;100.00;101023.63;6248477;22;20075;-77
2022/12/30 01:44:57;;;;;;;9.73;2.25;;;;;;;4.64;100.00;101022.88;6249000;22;20021;-77
2022/12/30 01:48:02;;;;;;;2.83;1.45;;;;;;;4.64;100.00;101026.25;6249014;22;20435;-77
2022/12/30 01:50:51;;;;;;;6.07;1.65;;;;;;;4.64;100.00;101026.25;6185153;23;20052;-78
2022/12/30 01:53:22;;;;;;;10.50;2.00;;;;;;;4.63;100.00;101026.63;6184953;23;20022;-78
2022/12/30 01:56:00;;;;;;;8.40;1.80;;;;;;;4.60;100.00;101030.81;6185493;23;20098;-77
2022/12/30 01:58:31;;;;;;;6.13;1.52;;;;;;;4.59;100.00;101034.59;6185218;23;20034;-78
2022/12/30 02:00:58;;;;;;;7.07;2.05;;;;;;;4.58;100.00;101043.63;6185171;23;20018;-77
2022/12/30 02:03:31;;;;;;;9.02;1.80;;;;;;;4.57;100.00;101057.22;6185520;23;20419;-78
2022/12/30 02:06:03;;;;;;;10.13;1.75;;;;;;;4.57;100.00;101052.69;6185636;23;20017;-77
2022/12/30 02:08:33;;;;;;;5.43;1.50;;;;;;;4.56;100.00;101051.19;6184833;23;20026;-77
2022/12/30 02:10:59;;;;;;;13.43;2.17;;;;;;;4.55;100.00;101043.66;6185585;23;20444;-77
2022/12/30 02:13:26;;;;;;;10.23;2.05;;;;;;;4.54;100.00;101037.63;6185097;23;20177;-77
2022/12/30 02:16:11;;;;;;;13.23;1.98;;;;;;;4.54;100.00;101034.25;6185208;23;20186;-77
2022/12/30 02:18:48;;;;;;;7.88;1.88;;;;;;;4.51;100.00;101022.59;6186240;23;20026;-77
2022/12/30 02:21:41;;;;;;;7.30;1.75;;;;;;;4.51;100.00;101022.59;6186695;23;20081;-77
2022/12/30 02:24:10;;;;;;;4.18;1.58;;;;;;;4.49;100.00;101027.50;6186438;23;20061;-77
2022/12/30 02:26:59;;;;;;;7.65;2.38;;;;;;;4.45;100.00;101003.06;6233143;22;20432;-77
2022/12/30 02:29:59;;;;;;;6.63;1.90;;;;;;;4.43;100.00;101002.69;6250419;22;20024;-77
2022/12/30 02:32:39;;;;;;;15.70;2.30;;;;;;;4.41;100.00;101007.63;6250069;22;20430;-77
2022/12/30 02:35:23;;;;;;;7.28;1.90;;;;;;;4.35;100.00;100986.22;6248572;22;20024;-77
2022/12/30 02:38:27;;;;;;;12.13;1.90;;;;;;;4.34;100.00;100984.72;6249726;22;20074;-77
2022/12/30 02:46:43;;;;;;;12.90;2.47;;;;;;;4.30;100.00;100972.72;6250126;22;20012;-77
2022/12/30 02:49:12;;;;;;;8.55;2.17;;;;;;;4.30;100.00;100964.81;6249477;22;20454;-77
2022/12/30 02:54:30;;;;;;;5.55;2.38;;;;;;;4.26;100.00;100964.84;6249780;22;20024;-77
2022/12/30 02:56:57;;;;;;;10.05;2.22;;;;;;;4.25;100.00;100963.34;6249861;22;20024;-77
2022/12/30 03:05:24;;;;;;;13.63;2.38;;;;;;;4.23;100.00;100981.44;6250001;22;20050;-77
2022/12/30 03:08:33;;;;;;;8.77;2.55;;;;;;;4.22;100.00;100984.44;6249058;22;20020;-79
2022/12/30 03:11:13;;;;;;;19.35;2.85;;;;;;;4.23;100.00;100978.78;6186458;23;20018;-79
2022/12/30 03:13:51;;;;;;;8.15;2.38;;;;;;;4.21;100.00;100994.25;6186842;23;20021;-79
2022/12/30 03:16:25;;;;;;;9.68;2.40;;;;;;;4.20;100.00;100987.47;6186233;23;20018;-77
2022/12/30 03:18:54;;;;;;;4.47;1.92;;;;;;;4.20;100.00;101000.66;6186406;23;20022;-77
2022/12/30 03:21:23;;;;;;;10.60;2.28;;;;;;;4.19;100.00;100991.25;6185446;23;20495;-77
2022/12/30 03:29:30;;;;;;;8.00;2.75;;;;;;;4.17;100.00;101001.44;6186223;23;20021;-77
2022/12/30 03:31:57;;;;;;;17.50;2.42;;;;;;;4.15;100.00;100993.16;6185685;23;20021;-77
2022/12/30 03:34:24;;;;;;;8.10;2.55;;;;;;;4.13;100.00;100987.53;6160975;23;20022;-77
2022/12/30 03:36:58;;;;;;;9.80;2.60;;;;;;;4.10;100.00;100963.84;6185476;23;20024;-77
2022/12/30 03:39:33;;;;;;;15.30;2.58;;;;;;;4.12;100.00;100967.59;6161801;23;20021;-77
2022/12/30 03:42:02;;;;;;;7.63;2.05;;;;;;;4.11;100.00;100962.72;6185523;23;20022;-77
2022/12/30 03:44:29;;;;;;;6.40;2.42;;;;;;;4.10;100.00;100977.75;6186052;23;20021;-77
2022/12/30 03:46:56;;;;;;;6.72;2.17;;;;;;;4.08;100.00;100958.97;6209290;22;20422;-77
2022/12/30 03:49:22;;;;;;;9.48;2.38;;;;;;;4.06;100.00;100960.47;6249283;22;20489;-77
2022/12/30 03:51:49;;;;;;;13.07;2.70;;;;;;;4.03;100.00;100965.38;6249908;22;20442;-77
2022/12/30 03:54:16;;;;;;;13.52;2.55;;;;;;;4.02;100.00;100960.50;6249568;22;20083;-77
2022/12/30 03:56:42;;;;;;;8.40;2.42;;;;;;;4.00;100.00;100968.06;6249904;22;20123;-77
2022/12/30 03:59:08;;;;;;;9.68;3.05;;;;;;;4.00;100.00;100968.06;6249419;22;20013;-77
2022/12/30 04:01:35;;;;;;;11.38;3.08;;;;;;;4.00;100.00;100968.81;6249948;22;20115;-77
2022/12/30 04:04:02;;;;;;;9.73;2.80;;;;;;;3.99;100.00;100969.22;6247615;22;20454;-77
2022/12/30 04:06:28;;;;;;;10.63;2.70;;;;;;;3.99;100.00;100969.22;6249731;22;20473;-77
2022/12/30 04:08:55;;;;;;;10.65;2.40;;;;;;;4.00;100.00;100965.41;6250105;22;20100;-77
2022/12/30 04:11:21;;;;;;;7.88;2.58;;;;;;;4.00;100.00;100975.94;6249555;22;20442;-77
2022/12/30 04:13:48;;;;;;;7.88;2.72;;;;;;;3.99;100.00;100966.59;6250251;22;20021;-77
2022/12/30 04:16:15;;;;;;;8.48;2.15;;;;;;;3.98;100.00;100973.75;6249542;22;20084;-77
2022/12/30 04:18:41;;;;;;;9.00;2.33;;;;;;;3.99;100.00;100969.97;6249641;22;20465;-78
2022/12/30 04:21:08;;;;;;;13.25;2.58;;;;;;;3.99;100.00;100977.88;6249345;22;20325;-77
2022/12/30 04:23:34;;;;;;;9.75;1.90;;;;;;;3.99;100.00;100975.22;6249832;22;20075;-77
2022/12/30 04:26:01;;;;;;;9.45;2.63;;;;;;;4.00;100.00;100976.69;6249458;22;20044;-77
2022/12/30 04:28:27;;;;;;;11.02;2.30;;;;;;;3.99;100.00;100972.59;6249387;22;20017;-77
2022/12/30 04:30:54;;;;;;;13.55;2.50;;;;;;;4.00;100.00;100979.34;6249276;22;20023;-77
2022/12/30 04:33:20;;;;;;;11.15;1.77;;;;;;;4.01;100.00;100977.44;6249162;22;20399;-77
2022/12/30 04:35:47;;;;;;;8.25;2.13;;;;;;;4.01;100.00;100972.19;6249927;22;20012;-77
2022/12/30 04:38:13;;;;;;;10.35;2.20;;;;;;;4.00;100.00;100981.97;6249236;22;20463;-77
2022/12/30 04:40:40;;;;;;;13.88;2.20;;;;;;;3.97;100.00;100982.03;6249459;22;20048;-77
2022/12/30 04:43:06;;;;;;;10.32;2.40;;;;;;;3.94;100.00;100980.91;6249337;22;20052;-77
2022/12/30 04:45:33;;;;;;;3.67;1.85;;;;;;;3.94;100.00;100985.44;6249219;22;20439;-77
2022/12/30 04:47:59;;;;;;;12.98;2.20;;;;;;;3.93;100.00;100976.78;6248937;22;20020;-77
2022/12/30 04:50:26;;;;;;;13.95;2.45;;;;;;;3.92;100.00;100980.56;6249359;22;20067;-77
2022/12/30 04:52:52;;;;;;;3.72;2.22;;;;;;;3.90;100.00;100974.91;6249536;22;20521;-77
2022/12/30 04:55:19;;;;;;;4.13;1.90;;;;;;;3.89;100.00;100978.69;6249308;22;20013;-77
2022/12/30 04:57:45;;;;;;;15.55;2.30;;;;;;;3.87;100.00;100972.31;6249695;22;20013;-77
2022/12/30 05:00:13;;;;;;;9.07;2.17;;;;;;;3.86;100.00;100965.53;6247180;22;20075;-77
2022/12/30 05:02:39;;;;;;;7.68;1.95;;;;;;;3.86;100.00;100968.19;6249039;22;20025;-77
2022/12/30 05:05:07;;;;;;;7.80;2.50;;;;;;;3.86;100.00;100970.81;6249204;22;20070;-77
2022/12/30 05:07:34;;;;;;;11.63;2.33;;;;;;;3.86;100.00;100971.56;6247989;22;20103;-77
2022/12/30 05:10:01;;;;;;;9.80;2.38;;;;;;;3.85;100.00;100971.94;6248939;22;20316;-77
2022/12/30 05:12:27;;;;;;;10.50;2.67;;;;;;;3.82;100.00;100965.56;6247360;22;20017;-77
2022/12/30 05:14:54;;;;;;;8.75;2.25;;;;;;;3.83;100.00;100961.06;6249241;22;20015;-77
2022/12/30 05:17:20;;;;;;;15.40;2.65;;;;;;;3.83;100.00;100972.34;6248535;22;20473;-78
2022/12/30 05:19:47;;;;;;;6.68;1.90;;;;;;;3.82;100.00;100962.94;6222616;22;20476;-77
2022/12/30 05:22:13;;;;;;;10.10;1.98;;;;;;;3.82;100.00;100955.03;6249226;22;20020;-77
2022/12/30 05:27:25;;;;;;;7.22;2.33;;;;;;;3.80;100.00;100953.91;6221977;22;20446;-77
2022/12/30 05:29:52;;;;;;;6.90;2.25;;;;;;;3.80;100.00;100949.41;6248993;22;20497;-78
2022/12/30 05:32:18;;;;;;;6.15;1.83;;;;;;;3.79;100.00;100949.78;6248472;22;20020;-77
2022/12/30 05:34:45;;;;;;;6.47;1.85;;;;;;;3.78;100.00;100956.19;6222445;22;20028;-77
2022/12/30 05:37:11;;;;;;;7.15;2.20;;;;;;;3.75;100.00;100952.44;6248701;22;20016;-77
2022/12/30 05:39:38;;;;;;;11.15;2.22;;;;;;;3.73;100.00;100949.44;6249504;22;20386;-77
2022/12/30 05:42:04;;;;;;;15.23;1.92;;;;;;;3.71;100.00;100946.44;6248587;22;20415;-77
2022/12/30 05:44:31;;;;;;;6.18;2.35;;;;;;;3.71;100.00;100946.44;6249177;22;20019;-77
2022/12/30 05:46:58;;;;;;;8.88;1.83;;;;;;;3.68;100.00;100947.97;6248441;22;20012;-77
2022/12/30 05:49:24;;;;;;;7.25;2.28;;;;;;;3.68;100.00;100941.97;6248898;22;20017;-77
2022/12/30 05:51:51;;;;;;;8.48;1.90;;;;;;;3.68;100.00;100939.31;6247068;22;20454;-77
2022/12/30 05:54:17;;;;;;;12.15;2.03;;;;;;;3.67;100.00;100935.19;6249656;22;20013;-77
2022/12/30 05:56:44;;;;;;;10.82;1.92;;;;;;;3.67;100.00;100935.94;6250661;22;20071;-77
2022/12/30 05:59:10;;;;;;;10.70;2.53;;;;;;;3.67;100.00;100940.47;6249469;22;20071;-77
2022/12/30 06:01:37;;;;;;;10.07;1.95;;;;;;;3.65;100.00;100927.69;6249771;22;20021;-77
2022/12/30 06:04:04;;;;;;;7.85;2.30;;;;;;;3.64;100.00;100931.44;6250087;22;20469;-77
2022/12/30 06:06:31;;;;;;;6.85;2.17;;;;;;;3.64;100.00;100931.44;6250348;22;20023;-77
2022/12/30 06:08:58;;;;;;;7.60;2.00;;;;;;;3.63;100.00;100931.84;6250191;22;20051;-77
2022/12/30 06:11:25;;;;;;;12.32;2.22;;;;;;;3.62;100.00;100925.06;6250228;22;20020;-77
2022/12/30 06:13:51;;;;;;;11.95;1.75;;;;;;;3.62;100.00;100917.16;6250257;22;20017;-77
2022/12/30 06:16:18;;;;;;;3.20;1.77;;;;;;;3.62;100.00;100917.91;6249586;22;20013;-77
2022/12/30 06:18:44;;;;;;;10.45;2.25;;;;;;;3.61;100.00;100920.94;6250317;22;20012;-77
2022/12/30 06:21:11;;;;;;;5.22;2.08;;;;;;;3.59;100.00;100921.34;6250002;22;20066;-77
2022/12/30 06:23:37;;;;;;;11.55;2.92;;;;;;;3.59;100.00;100931.13;6250514;22;20016;-77
2022/12/30 06:26:04;;;;;;;7.13;2.22;;;;;;;3.58;100.00;100930.38;6250137;22;20449;-77
2022/12/30 06:28:30;;;;;;;6.43;1.88;;;;;;;3.59;100.00;100925.88;6250248;22;20012;-77
2022/12/30 06:30:57;;;;;;;11.02;2.30;;;;;;;3.57;100.00;100920.25;6249492;22;20020;-79
2022/12/30 06:33:24;;;;;;;4.50;1.73;;;;;;;3.58;100.00;100925.13;6250156;22;20024;-79
2022/12/30 06:35:51;;;;;;;8.25;2.22;;;;;;;3.59;100.00;100920.59;6250255;22;20067;-79
2022/12/30 06:38:18;;;;;;;12.38;2.38;;;;;;;3.60;100.00;100914.94;6249832;22;20013;-78
2022/12/30 06:40:45;;;;;;;15.02;2.50;;;;;;;3.60;100.00;100907.03;6249840;22;20021;-79
2022/12/30 06:43:12;;;;;;;11.55;2.78;;;;;;;3.62;100.00;100896.84;6247797;22;20486;-77
2022/12/30 06:45:39;;;;;;;5.00;1.70;;;;;;;3.63;100.00;100894.97;6250436;22;20087;-77
2022/12/30 06:48:05;;;;;;;11.07;2.40;;;;;;;3.66;100.00;100896.84;6250001;22;20040;-77
2022/12/30 06:50:32;;;;;;;11.32;2.95;;;;;;;3.68;100.00;100899.84;6250211;22;20047;-77
2022/12/30 06:52:58;;;;;;;8.23;2.50;;;;;;;3.68;100.00;100890.03;6250701;22;20012;-77
2022/12/30 06:55:25;;;;;;;9.77;2.10;;;;;;;3.69;100.00;100880.25;6251671;22;20017;-77
2022/12/30 06:58:00;;;;;;;6.20;2.60;;;;;;;3.69;100.00;100883.66;6250672;22;20432;-78
2022/12/30 07:00:27;;;;;;;9.60;2.70;;;;;;;3.69;100.00;100875.75;6250875;22;20512;-77
2022/12/30 07:02:54;;;;;;;7.18;2.30;;;;;;;3.68;100.00;100874.25;6249836;22;20020;-77
2022/12/30 07:05:20;;;;;;;7.63;2.50;;;;;;;3.68;100.00;100874.25;6250530;22;20013;-77
2022/12/30 07:07:47;;;;;;;6.05;2.40;;;;;;;3.68;100.00;100878.75;6250196;22;20024;-78
2022/12/30 07:10:14;;;;;;;11.05;2.55;;;;;;;3.67;100.00;100862.22;6250528;22;20415;-78
2022/12/30 07:12:40;;;;;;;13.43;3.05;;;;;;;3.67;100.00;100864.84;6250937;22;20068;-80
2022/12/30 07:15:07;;;;;;;9.75;2.83;;;;;;;3.68;100.00;100866.34;6250672;22;20020;-77
2022/12/30 07:17:34;;;;;;;12.77;3.22;;;;;;;3.67;100.00;100861.47;6251215;22;20020;-76
2022/12/30 07:20:01;;;;;;;10.18;3.00;;;;;;;3.68;100.00;100850.56;6250802;22;20016;-78
2022/12/30 07:22:27;;;;;;;10.68;2.47;;;;;;;3.69;100.00;100846.03;6251188;22;20445;-79
2022/12/30 07:24:54;;;;;;;12.32;3.08;;;;;;;3.69;100.00;100849.41;6223675;22;20410;-79
2022/12/30 07:27:20;;;;;;;9.43;3.05;;;;;;;3.72;100.00;100844.50;6250641;22;20092;-82
2022/12/30 07:29:46;;;;;;;8.93;2.75;;;;;;;3.73;100.00;100846.75;6250982;22;20037;-80
2022/12/30 07:32:13;;;;;;;11.38;2.67;;;;;;;3.74;100.00;100843.00;6250881;22;20048;-80
2022/12/30 07:34:40;;;;;;;10.88;2.47;;;;;;;3.74;100.00;100832.44;6250951;22;20087;-80
2022/12/30 07:37:10;;;;;;;11.25;2.60;;;;;;;3.73;100.00;100843.38;6251059;22;20529;-80
2022/12/30 07:39:38;;;;;;;5.68;2.60;;;;;;;3.74;100.00;100839.59;6223754;22;20355;-79
2022/12/30 07:42:04;;;;;;;10.52;2.38;;;;;;;3.75;100.00;100841.09;6250038;22;20014;-79
2022/12/30 07:44:31;;;;;;;5.90;2.67;;;;;;;3.74;100.00;100836.97;6251026;22;20020;-79
2022/12/30 07:46:57;;;;;;;8.65;2.53;;;;;;;3.72;100.00;100833.97;6250718;22;20036;-79
2022/12/30 07:49:24;;;;;;;4.68;2.35;;;;;;;3.70;100.00;100818.56;6250891;22;20474;-78
2022/12/30 07:51:50;;;;;;;8.30;2.83;;;;;;;3.71;100.00;100820.06;6250452;22;20017;-79
2022/12/30 07:54:17;;;;;;;9.57;2.90;;;;;;;3.70;100.00;100810.66;6250924;22;20052;-78
2022/12/30 07:56:43;;;;;;;13.63;2.45;;;;;;;3.74;100.00;100806.13;6250595;22;20020;-78
2022/12/30 07:59:14;;;;;;;10.60;2.58;;;;;;;3.71;100.00;100791.09;6250695;22;20055;-82
2022/12/30 08:01:41;;;;;;;9.27;2.78;;;;;;;3.71;100.00;100785.84;6250760;22;20013;-80
2022/12/30 08:04:08;;;;;;;11.48;2.58;;;;;;;3.73;100.00;100780.94;6250786;22;20556;-77
2022/12/30 08:06:54;;;;;;;9.05;2.50;;;;;;;3.76;100.00;100776.78;6250567;22;20019;-78
2022/12/30 08:09:21;;;;;;;11.27;2.55;;;;;;;3.77;100.00;100778.25;6250966;22;20021;-78
2022/12/30 08:11:47;;;;;;;5.40;1.90;;;;;;;3.80;100.00;100777.47;6250721;22;20517;-77
2022/12/30 08:14:14;;;;;;;8.07;2.72;;;;;;;3.82;100.00;100778.59;6250724;22;20013;-78
2022/12/30 08:16:40;;;;;;;5.88;2.50;;;;;;;3.84;100.00;100783.47;6250629;22;20048;-78
2022/12/30 08:19:07;;;;;;;9.68;3.05;;;;;;;3.85;100.00;100771.78;6250191;22;20458;-78
2022/12/30 08:21:33;;;;;;;9.30;3.00;;;;;;;3.86;100.00;100774.03;6251225;22;20438;-78
2022/12/30 08:24:00;;;;;;;5.40;2.22;;;;;;;3.90;100.00;100756.31;6250217;22;20450;-78
2022/12/30 08:26:26;;;;;;;9.20;3.08;;;;;;;3.94;100.00;100749.13;6250161;22;20016;-77
2022/12/30 08:28:53;;;;;;;12.30;3.28;;;;;;;3.98;100.00;100735.91;6250470;22;20027;-78
2022/12/30 08:31:23;;;;;;;9.13;2.17;;;;;;;4.03;100.00;100735.44;6251049;22;20013;-78
2022/12/30 08:33:50;;;;;;;9.88;2.88;;;;;;;4.08;100.00;100734.28;6250682;22;20012;-79
2022/12/30 08:36:20;;;;;;;6.05;2.42;;;;;;;4.12;100.00;100740.25;6251166;22;20051;-79
2022/12/30 08:38:49;;;;;;;10.35;2.70;;;;;;;4.14;100.00;100738.72;6250771;22;20398;-79
2022/12/30 08:41:18;;;;;;;9.57;2.00;;;;;;;4.16;100.00;100730.41;6249734;22;20013;-81
2022/12/30 08:43:46;;;;;;;11.20;2.60;;;;;;;4.21;100.00;100732.63;6250524;22;20451;-78
2022/12/30 08:46:13;;;;;;;15.23;2.90;;;;;;;4.24;100.00;100729.94;6249079;22;20017;-79
2022/12/30 08:48:40;;;;;;;10.10;1.95;;;;;;;4.27;100.00;100721.25;6250382;22;20025;-79
2022/12/30 08:51:07;;;;;;;7.40;2.58;;;;;;;4.31;100.00;100735.13;6250018;22;20048;-79
2022/12/30 08:53:34;;;;;;;7.93;2.53;;;;;;;4.34;100.00;100726.44;6250290;22;20402;-78
2022/12/30 08:56:02;;;;;;;7.50;2.90;;;;;;;4.40;100.00;100726.00;6249055;22;20087;-78
2022/12/30 08:58:30;;;;;;;6.90;2.30;;;;;;;4.43;100.00;100725.16;6250533;22;20017;-78
2022/12/30 09:00:56;;;;;;;4.53;2.45;;;;;;;4.45;100.00;100715.72;6249996;22;20013;-75
2022/12/30 09:03:23;;;;;;;5.85;2.40;;;;;;;4.50;100.00;100714.53;6250377;22;20048;-79
2022/12/30 09:05:54;;;;;;;4.03;2.00;;;;;;;4.54;100.00;100715.97;6250403;22;20434;-76
2022/12/30 09:08:27;;;;;;;4.75;2.25;;;;;;;4.58;100.00;100714.03;6250079;22;20096;-77
2022/12/30 09:11:19;;;;;;;9.57;2.55;;;;;;;4.62;100.00;100712.09;6250209;22;20051;-78
2022/12/30 09:13:46;;;;;;;3.78;2.13;;;;;;;4.63;100.00;100716.25;6216073;22;20051;-77
2022/12/30 09:16:16;;;;;;;5.13;2.67;;;;;;;4.67;100.00;100710.91;6249494;22;20423;-79
2022/12/30 09:18:43;;;;;;;5.57;2.33;;;;;;;4.71;100.00;100708.22;6250318;22;20074;-79
2022/12/30 09:21:10;;;;;;;8.65;2.92;;;;;;;4.73;100.00;100709.31;6223147;22;20017;-79
2022/12/30 09:23:37;;;;;;;11.75;2.88;;;;;;;4.76;100.00;100705.13;6249623;22;20020;-90
2022/12/30 09:26:04;;;;;;;8.30;2.60;;;;;;;4.79;100.00;100699.81;6249648;22;20071;-78
2022/12/30 09:28:32;;;;;;;5.75;1.85;;;;;;;4.83;100.00;100707.66;6249902;22;20017;-78
2022/12/30 09:30:59;;;;;;;5.57;2.47;;;;;;;4.86;100.00;100683.13;6222289;22;20028;-78
2022/12/30 09:33:25;;;;;;;10.95;2.90;;;;;;;4.88;100.00;100686.09;6222854;22;20008;-78
2022/12/30 09:35:52;;;;;;;3.72;1.83;;;;;;;4.89;100.00;100688.34;6249566;22;20013;-78
2022/12/30 09:38:18;;;;;;;4.40;2.40;;;;;;;4.93;100.00;100680.38;6249492;22;20112;-78
2022/12/30 09:41:01;;;;;;;6.88;2.50;;;;;;;4.97;100.00;100667.88;6249450;22;20086;-79
2022/12/30 09:43:38;;;;;;;7.85;2.50;;;;;;;5.00;100.00;100670.44;6223339;22;20060;-79
2022/12/30 09:46:20;;;;;;;3.20;2.03;;;;;;;5.06;100.00;100659.44;6249625;22;20021;-78
2022/12/30 09:48:57;;;;;;;5.10;1.98;;;;;;;5.10;100.00;100650.31;6250301;22;20055;-79
2022/12/30 09:51:29;;;;;;;8.35;2.60;;;;;;;5.16;100.00;100655.88;6250015;22;20020;-78
2022/12/30 09:54:07;;;;;;;2.78;2.28;;;;;;;5.20;100.00;100654.63;6249517;22;20020;-78
2022/12/30 09:56:37;;;;;;;3.00;2.33;;;;;;;5.25;100.00;100645.50;6223065;22;20012;-79
2022/12/30 09:59:13;;;;;;;5.45;2.45;;;;;;;5.29;100.00;100636.38;6249655;22;20016;-79
2022/12/30 10:01:45;;;;;;;4.75;2.28;;;;;;;5.32;100.00;100630.28;6250142;22;20095;-78
2022/12/30 10:04:19;;;;;;;4.13;2.35;;;;;;;5.40;100.00;100625.63;6222091;22;20021;-79
2022/12/30 10:07:43;;;;;;;5.22;2.65;;;;;;;5.45;100.00;100627.06;6249368;22;20017;-77
2022/12/30 10:10:18;;;;;;;5.63;2.08;;;;;;;5.49;100.00;100607.34;6097159;23;20441;-79
2022/12/30 10:12:58;;;;;;;5.43;3.17;;;;;;;5.55;100.00;100603.09;6097388;23;20018;-79
2022/12/30 10:15:53;;;;;;;4.45;2.25;;;;;;;5.59;100.00;100595.09;6097395;23;20085;-79
2022/12/30 10:19:12;;;;;;;7.80;2.38;;;;;;;5.65;100.00;100578.34;6097430;23;20437;-79
2022/12/30 10:22:01;;;;;;;9.77;2.65;;;;;;;5.73;100.00;100586.88;5981726;23;20028;-81
2022/12/30 10:25:03;;;;;;;5.30;1.83;;;;;;;5.78;100.00;100557.34;5983999;23;20165;-82
2022/12/30 10:27:49;;;;;;;4.50;1.87;;;;;;;5.87;100.00;100556.78;5982628;23;20020;-80
2022/12/30 10:30:36;;;;;;;4.97;2.17;;;;;;;5.93;100.00;100557.81;5981954;23;20245;-80
2022/12/30 10:33:20;;;;;;;4.07;1.58;;;;;;;5.98;100.00;100539.56;5981118;23;20084;-80
2022/12/30 10:36:15;;;;;;;4.32;1.30;;;;;;;6.08;100.00;100537.06;5981031;23;20103;-80
2022/12/30 10:39:19;;;;;;;4.78;1.60;;;;;;;6.15;100.00;100516.50;5982149;23;20032;-80
2022/12/30 10:42:20;;;;;;;3.30;1.27;;;;;;;6.23;100.00;100504.63;5959831;23;20020;-80
2022/12/30 10:45:25;;;;;;;1.85;1.05;;;;;;;6.30;100.00;100501.06;6102186;23;20124;-79
2022/12/30 10:48:16;;;;;;;3.60;2.15;;;;;;;6.37;100.00;100490.31;6102611;23;20113;-80
2022/12/30 10:50:46;;;;;;;1.67;1.42;;;;;;;6.44;99.63;100473.50;6102582;23;20469;-80
2022/12/30 10:53:17;;;;;;;5.80;1.50;;;;;;;6.46;99.48;100461.34;6127566;23;20022;-80
2022/12/30 10:55:48;;;;;;;6.13;1.60;;;;;;;6.49;99.06;100452.59;6103452;23;20097;-79
2022/12/30 10:58:29;;;;;;;3.35;1.23;;;;;;;6.52;99.05;100430.59;6130699;22;20184;-80
2022/12/30 11:00:59;;;;;;;5.70;1.30;;;;;;;6.53;98.50;100432.06;6223194;22;20442;-79
2022/12/30 11:03:43;;;;;;;5.15;1.48;;;;;;;6.54;98.69;100438.84;6198778;22;20067;-82
2022/12/30 11:06:19;;;;;;;3.22;0.98;;;;;;;6.57;98.54;100432.72;6248460;22;20517;-81
2022/12/30 11:08:46;;;;;;;5.82;1.75;;;;;;;6.58;98.13;100430.81;6251006;22;20451;-83
2022/12/30 11:11:13;;;;;;;4.85;1.55;;;;;;;6.58;98.02;100409.66;6250715;22;20152;-78
2022/12/30 11:16:31;;;;;;;6.80;1.95;;;;;;;6.63;98.19;100385.34;6250779;22;20028;-78
2022/12/30 11:19:01;;;;;;;7.20;1.83;;;;;;;6.65;97.90;100383.03;6250058;22;20019;-83
2022/12/30 11:21:35;;;;;;;4.65;1.60;;;;;;;6.66;97.34;100366.00;6225560;22;20013;-81
2022/12/30 11:24:03;;;;;;;1.35;1.15;;;;;;;6.66;97.56;100345.56;6250515;22;20374;-81
2022/12/30 11:26:33;;;;;;;3.78;1.52;;;;;;;6.68;97.55;100350.44;6250745;22;20017;-81
2022/12/30 11:29:06;;;;;;;4.65;1.52;;;;;;;6.70;97.17;100337.53;6251227;22;20020;-81
2022/12/30 11:31:42;;;;;;;5.25;2.15;;;;;;;6.69;97.15;100328.13;6251024;22;20016;-82
2022/12/30 11:34:20;;;;;;;3.63;1.38;;;;;;;6.72;97.52;100310.66;6249986;22;20012;-82
2022/12/30 11:36:47;;;;;;;7.80;1.88;;;;;;;6.74;96.95;100309.09;6249330;22;20028;-81
2022/12/30 11:39:23;;;;;;;3.45;1.27;;;;;;;6.76;97.38;100292.78;6250719;22;20021;-80
2022/12/30 11:41:52;;;;;;;1.45;0.95;;;;;;;6.78;97.27;100285.16;6223305;22;20021;-81
2022/12/30 11:44:28;;;;;;;1.98;1.00;;;;;;;6.80;96.73;100272.25;6250782;22;20091;-81
2022/12/30 11:46:58;;;;;;;7.90;1.67;;;;;;;6.80;96.63;100264.31;6250436;22;20017;-81
2022/12/30 11:49:29;;;;;;;4.25;1.40;;;;;;;6.79;96.29;100255.66;6250094;22;20017;-82
2022/12/30 11:52:05;;;;;;;4.95;2.03;;;;;;;6.80;96.25;100246.50;6249776;22;20013;-80
2022/12/30 11:54:38;;;;;;;2.75;1.38;;;;;;;6.82;96.29;100236.25;6250681;22;20051;-81
2022/12/30 11:57:33;;;;;;;3.13;1.10;;;;;;;6.85;96.93;100224.06;6250813;22;20017;-81
2022/12/30 12:00:20;;;;;;;3.20;1.00;;;;;;;6.89;96.44;100220.16;6250572;22;20059;-81
2022/12/30 12:02:57;;;;;;;3.72;1.48;;;;;;;6.91;96.08;100206.50;6239216;22;20020;-80
2022/12/30 12:05:44;;;;;;;3.30;1.17;;;;;;;6.93;95.73;100199.63;6250609;22;20071;-81
2022/12/30 12:08:23;;;;;;;7.75;1.95;;;;;;;6.96;95.60;100190.09;6250315;22;20062;-81
2022/12/30 12:10:57;;;;;;;6.65;1.50;;;;;;;7.00;95.94;100166.91;6223445;22;20442;-81
2022/12/30 12:13:59;;;;;;;2.90;1.40;;;;;;;7.03;96.16;100172.06;6251191;22;20342;-81
2022/12/30 12:16:34;;;;;;;5.30;1.63;;;;;;;7.06;95.75;100154.59;6223677;22;20020;-81
2022/12/30 12:19:41;;;;;;;5.05;1.42;;;;;;;7.12;95.84;100152.91;6249324;22;20023;-82
2022/12/30 12:22:20;;;;;;;3.35;1.38;;;;;;;7.18;95.58;100158.38;6249896;22;20477;-82
2022/12/30 12:24:53;;;;;;;9.98;1.92;;;;;;;7.20;95.51;100145.44;6250500;22;20398;-82
2022/12/30 12:27:21;;;;;;;2.70;1.60;;;;;;;7.20;95.10;100122.34;6250687;22;20009;-81
2022/12/30 12:29:48;;;;;;;4.47;1.85;;;;;;;7.22;95.24;100130.59;6223217;22;20021;-82
2022/12/30 12:32:36;;;;;;;9.48;1.92;;;;;;;7.24;95.18;100124.88;6250059;22;20464;-82
2022/12/30 12:35:27;;;;;;;4.93;1.33;;;;;;;7.27;95.42;100116.06;6250551;22;20012;-82
2022/12/30 12:38:13;;;;;;;6.35;1.70;;;;;;;7.30;95.43;100099.31;6250150;22;20013;-82
2022/12/30 12:40:45;;;;;;;5.75;1.75;;;;;;;7.32;95.18;100104.94;6250181;22;20021;-82
2022/12/30 12:43:21;;;;;;;3.65;1.60;;;;;;;7.35;95.23;100096.88;6250450;22;20013;-82